Time;durP1;ratioP1;P1;durP2;ratioP2;P2;SDS_P1;SDS_P2;PMS_P1;PMS_P2;Temp;Humidity;BMP_temperature;BMP_pressure;BME280_temperature;BME280_humidity;BME280_pressure;Samples;Min_cycle;Max_cycle;Signal;HPM_P1;HPM_P2
2023/09/11 00:01:04;;;;;;;6.35;5.80;;;22.20;99.90;;;;;;5039850;28;20235;-71
2023/09/11 00:03:32;;;;;;;6.43;5.93;;;22.20;99.90;;;;;;5041220;28;20243;-71
2023/09/11 00:06:04;;;;;;;5.80;5.30;;;22.20;99.90;;;;;;5022349;28;20250;-71
2023/09/11 00:08:33;;;;;;;5.90;5.47;;;22.20;99.90;;;;;;5034229;28;20204;-71
2023/09/11 00:11:02;;;;;;;6.45;5.95;;;22.20;99.90;;;;;;5039313;28;20265;-70
2023/09/11 00:13:29;;;;;;;6.30;5.72;;;22.10;99.90;;;;;;5038810;28;20366;-71
2023/09/11 00:15:56;;;;;;;6.20;5.70;;;22.10;99.90;;;;;;5037154;28;20251;-71
2023/09/11 00:18:24;;;;;;;6.45;5.95;;;22.00;99.90;;;;;;5021626;28;20300;-71
2023/09/11 00:20:51;;;;;;;6.70;6.18;;;22.00;99.90;;;;;;5038040;28;20203;-71
2023/09/11 00:23:18;;;;;;;6.82;6.22;;;22.00;99.90;;;;;;5021255;28;20205;-71
2023/09/11 00:25:46;;;;;;;6.88;6.20;;;21.90;99.90;;;;;;5036947;28;20254;-71
2023/09/11 00:28:14;;;;;;;6.60;6.00;;;21.90;99.90;;;;;;5040037;28;20732;-71
2023/09/11 00:30:41;;;;;;;5.90;5.50;;;21.90;99.90;;;;;;5036245;28;20256;-71
2023/09/11 00:33:08;;;;;;;6.38;5.88;;;21.90;99.90;;;;;;5041300;28;20231;-71
2023/09/11 00:35:35;;;;;;;6.03;5.57;;;21.80;99.90;;;;;;5037329;28;20293;-71
2023/09/11 00:38:02;;;;;;;6.32;5.82;;;21.80;99.90;;;;;;5037183;28;20272;-71
2023/09/11 00:40:29;;;;;;;6.30;5.80;;;21.70;99.90;;;;;;5041549;28;20239;-72
2023/09/11 00:42:57;;;;;;;5.93;5.50;;;21.70;99.90;;;;;;5039955;28;20257;-71
2023/09/11 00:45:24;;;;;;;6.53;6.03;;;21.60;99.90;;;;;;5021038;28;20229;-71
2023/09/11 00:47:52;;;;;;;6.00;5.55;;;21.60;99.90;;;;;;5039850;28;20285;-71
2023/09/11 00:50:19;;;;;;;6.07;5.57;;;21.50;99.90;;;;;;5043476;28;20210;-71
2023/09/11 00:52:47;;;;;;;5.78;5.38;;;21.50;99.90;;;;;;5035977;28;20203;-71
2023/09/11 00:55:14;;;;;;;6.13;5.65;;;21.50;99.90;;;;;;5020764;28;20272;-71
2023/09/11 00:57:43;;;;;;;6.75;6.25;;;21.50;99.90;;;;;;5016705;28;20726;-71
2023/09/11 01:00:14;;;;;;;5.97;5.57;;;21.50;99.90;;;;;;5021738;28;20203;-71
2023/09/11 01:02:41;;;;;;;6.47;5.97;;;21.50;99.90;;;;;;5023114;28;20298;-71
2023/09/11 01:05:09;;;;;;;5.88;5.40;;;21.60;99.90;;;;;;5039345;28;20304;-71
2023/09/11 01:07:37;;;;;;;8.15;6.10;;;21.60;99.90;;;;;;5040475;28;20304;-71
2023/09/11 01:10:06;;;;;;;6.13;5.72;;;21.60;99.90;;;;;;5040640;28;20766;-71
2023/09/11 01:12:35;;;;;;;6.10;5.60;;;21.60;99.90;;;;;;5040637;28;20203;-72
2023/09/11 01:15:04;;;;;;;6.22;5.72;;;21.60;99.90;;;;;;5043689;28;20258;-71
2023/09/11 01:17:39;;;;;;;6.05;5.55;;;21.60;99.90;;;;;;5039303;28;20869;-71
2023/09/11 01:20:32;;;;;;;6.65;6.15;;;21.60;99.90;;;;;;5040759;28;20257;-71
2023/09/11 01:23:30;;;;;;;6.07;5.68;;;21.60;99.90;;;;;;5038384;28;20260;-71
2023/09/11 01:26:24;;;;;;;5.88;5.38;;;21.50;99.90;;;;;;5029903;28;20222;-70
2023/09/11 01:29:08;;;;;;;6.30;5.80;;;21.50;99.90;;;;;;5040515;28;20211;-70
2023/09/11 01:31:36;;;;;;;6.38;5.88;;;21.50;99.90;;;;;;5038884;28;20210;-71
2023/09/11 01:34:04;;;;;;;6.22;5.72;;;21.50;99.90;;;;;;5038003;28;20625;-70
2023/09/11 01:36:31;;;;;;;6.43;5.82;;;21.50;99.90;;;;;;5039313;28;20670;-70
2023/09/11 01:38:59;;;;;;;6.40;6.00;;;21.40;99.90;;;;;;5032523;28;20226;-70
2023/09/11 01:41:28;;;;;;;6.18;5.78;;;21.40;99.90;;;;;;5037416;28;20680;-70
2023/09/11 01:43:59;;;;;;;6.35;5.85;;;21.40;99.90;;;;;;5038091;28;20258;-70
2023/09/11 01:46:29;;;;;;;6.30;5.72;;;21.40;99.90;;;;;;5038224;28;20919;-70
2023/09/11 01:48:58;;;;;;;5.70;5.30;;;21.40;99.90;;;;;;5038183;28;20834;-71
2023/09/11 01:51:25;;;;;;;5.80;5.40;;;21.40;99.90;;;;;;5042250;28;20954;-71
2023/09/11 01:53:53;;;;;;;6.63;5.85;;;21.30;99.90;;;;;;5040233;28;20211;-71
2023/09/11 01:56:21;;;;;;;6.65;6.00;;;21.20;99.90;;;;;;5044053;28;20199;-71
2023/09/11 01:58:48;;;;;;;6.40;5.90;;;21.20;99.90;;;;;;5040299;28;20716;-71
2023/09/11 02:01:15;;;;;;;6.20;5.80;;;21.20;99.90;;;;;;5038621;28;20661;-71
2023/09/11 02:03:44;;;;;;;6.68;6.15;;;21.20;99.90;;;;;;5038727;28;20684;-71
2023/09/11 02:06:11;;;;;;;6.15;5.55;;;21.10;99.90;;;;;;5040969;28;20227;-71
2023/09/11 02:08:38;;;;;;;6.55;6.05;;;21.10;99.90;;;;;;5038799;28;20231;-71
2023/09/11 02:11:07;;;;;;;6.05;5.55;;;21.10;99.90;;;;;;5036942;28;20330;-71
2023/09/11 02:13:34;;;;;;;6.45;5.95;;;21.10;99.90;;;;;;5039449;28;20203;-71
2023/09/11 02:16:01;;;;;;;5.78;5.28;;;21.10;99.90;;;;;;5037548;28;20218;-71
2023/09/11 02:18:28;;;;;;;6.85;6.25;;;21.10;99.90;;;;;;5036915;28;20307;-71
2023/09/11 02:20:56;;;;;;;6.68;6.15;;;21.10;99.90;;;;;;5035601;28;20208;-70
2023/09/11 02:23:23;;;;;;;6.63;6.13;;;21.10;99.90;;;;;;5036389;28;20285;-71
2023/09/11 02:25:51;;;;;;;7.07;6.38;;;21.00;99.90;;;;;;5039208;28;20220;-71
2023/09/11 02:28:18;;;;;;;6.13;5.72;;;21.00;99.90;;;;;;5036337;28;20195;-71
2023/09/11 02:30:45;;;;;;;6.65;6.15;;;21.00;99.90;;;;;;5038919;28;20226;-71
2023/09/11 02:33:12;;;;;;;6.25;5.80;;;20.90;99.90;;;;;;5021871;28;20199;-70
2023/09/11 02:35:39;;;;;;;6.90;6.30;;;20.90;99.90;;;;;;5037870;28;20246;-72
2023/09/11 02:38:08;;;;;;;6.18;5.68;;;20.90;99.90;;;;;;5042401;28;20237;-71
2023/09/11 02:40:37;;;;;;;5.80;5.40;;;20.90;99.90;;;;;;5041825;28;20190;-71
2023/09/11 02:43:04;;;;;;;6.30;5.90;;;20.90;99.90;;;;;;5041469;28;20871;-71
2023/09/11 02:45:31;;;;;;;6.43;5.93;;;20.90;99.90;;;;;;5042279;28;20258;-72
2023/09/11 02:47:58;;;;;;;6.47;5.90;;;20.90;99.90;;;;;;5041634;28;20254;-71
2023/09/11 02:50:25;;;;;;;7.03;6.40;;;20.90;99.90;;;;;;5040425;28;20231;-71
2023/09/11 02:52:52;;;;;;;6.53;6.00;;;20.90;99.90;;;;;;5038799;28;20249;-71
2023/09/11 02:55:20;;;;;;;7.70;5.95;;;20.80;99.90;;;;;;5036908;28;20305;-72
2023/09/11 02:57:47;;;;;;;6.28;5.88;;;20.90;99.90;;;;;;5040495;28;20838;-73
2023/09/11 03:00:15;;;;;;;6.38;5.88;;;20.80;99.90;;;;;;5037576;28;20198;-73
2023/09/11 03:02:42;;;;;;;6.43;5.93;;;20.80;99.90;;;;;;5040274;28;20221;-73
2023/09/11 03:05:09;;;;;;;6.78;6.15;;;20.70;99.90;;;;;;5040965;28;20232;-72
2023/09/11 03:07:36;;;;;;;7.55;6.95;;;20.70;99.90;;;;;;5041048;28;20569;-73
2023/09/11 03:10:04;;;;;;;7.40;6.80;;;20.70;99.90;;;;;;5042521;28;20288;-71
2023/09/11 03:12:32;;;;;;;7.00;6.40;;;20.70;99.90;;;;;;5042394;28;20876;-72
2023/09/11 03:15:03;;;;;;;6.75;6.25;;;20.80;99.90;;;;;;5039852;28;20247;-72
2023/09/11 03:17:30;;;;;;;6.63;6.13;;;20.70;99.90;;;;;;5043839;28;20203;-72
2023/09/11 03:19:58;;;;;;;6.57;6.07;;;20.60;99.90;;;;;;5036512;28;20199;-72
2023/09/11 03:22:25;;;;;;;6.22;5.72;;;20.60;99.90;;;;;;5039831;28;20246;-72
2023/09/11 03:24:52;;;;;;;6.57;5.97;;;20.50;99.90;;;;;;5022261;28;21029;-71
2023/09/11 03:27:19;;;;;;;6.65;6.15;;;20.40;99.90;;;;;;5038067;28;20222;-72
2023/09/11 03:29:51;;;;;;;6.97;6.38;;;20.40;99.90;;;;;;5036569;28;20285;-72
2023/09/11 03:32:18;;;;;;;6.60;6.10;;;20.40;99.90;;;;;;5035968;28;20280;-72
2023/09/11 03:34:45;;;;;;;6.97;6.35;;;20.40;99.90;;;;;;5039361;28;20288;-71
2023/09/11 03:37:12;;;;;;;6.82;6.32;;;20.40;99.90;;;;;;5036556;28;20211;-71
2023/09/11 03:39:39;;;;;;;6.70;6.18;;;20.30;99.90;;;;;;5038773;28;20752;-72
2023/09/11 03:42:06;;;;;;;6.53;6.03;;;20.30;99.90;;;;;;5039445;28;20211;-70
2023/09/11 03:44:33;;;;;;;6.53;6.03;;;20.20;99.90;;;;;;5041571;28;20250;-70
2023/09/11 03:47:01;;;;;;;6.75;6.25;;;20.20;99.90;;;;;;5029875;28;20513;-70
2023/09/11 03:49:28;;;;;;;7.30;6.60;;;20.10;99.90;;;;;;5042391;28;20285;-70
2023/09/11 03:51:55;;;;;;;6.50;6.00;;;20.10;99.90;;;;;;5020966;28;20195;-70
2023/09/11 03:54:22;;;;;;;7.07;6.57;;;20.00;99.90;;;;;;5038371;28;20222;-70
2023/09/11 03:56:49;;;;;;;6.93;6.30;;;20.00;99.90;;;;;;5018765;28;20195;-70
2023/09/11 03:59:17;;;;;;;6.55;6.05;;;20.00;99.90;;;;;;5040288;28;20198;-70
2023/09/11 04:01:44;;;;;;;7.07;6.57;;;20.00;99.90;;;;;;5040473;28;20269;-70
2023/09/11 04:04:12;;;;;;;6.25;5.78;;;20.00;99.90;;;;;;5022379;28;20691;-70
2023/09/11 04:06:39;;;;;;;6.35;5.75;;;19.90;99.90;;;;;;5039105;28;20674;-70
2023/09/11 04:09:06;;;;;;;7.32;6.63;;;20.00;99.90;;;;;;5041020;28;20269;-71
2023/09/11 04:11:33;;;;;;;7.25;6.55;;;20.00;99.90;;;;;;5038174;28;20195;-70
2023/09/11 04:14:00;;;;;;;6.72;6.22;;;20.00;99.90;;;;;;5034859;28;20779;-70
2023/09/11 04:16:27;;;;;;;6.90;6.40;;;19.90;99.90;;;;;;5040472;28;20735;-70
2023/09/11 04:18:54;;;;;;;6.35;5.85;;;19.90;99.90;;;;;;5036518;28;20288;-71
2023/09/11 04:21:22;;;;;;;6.38;5.88;;;19.90;99.90;;;;;;5042303;28;20285;-70
2023/09/11 04:23:49;;;;;;;6.53;6.03;;;19.80;99.90;;;;;;5040301;28;20204;-70
2023/09/11 04:26:16;;;;;;;6.93;6.43;;;19.80;99.90;;;;;;5040100;28;20226;-70
2023/09/11 04:28:43;;;;;;;6.60;6.10;;;19.80;99.90;;;;;;5038394;28;20217;-71
2023/09/11 04:31:10;;;;;;;6.70;6.13;;;19.80;99.90;;;;;;5040867;28;20288;-70
2023/09/11 04:33:37;;;;;;;6.25;5.75;;;19.80;99.90;;;;;;5042256;28;20230;-71
2023/09/11 04:36:05;;;;;;;6.88;6.28;;;19.80;99.90;;;;;;5040890;28;20230;-70
2023/09/11 04:38:34;;;;;;;6.40;5.90;;;19.80;99.90;;;;;;5034379;28;21905;-71
2023/09/11 04:41:01;;;;;;;6.70;6.10;;;19.80;99.90;;;;;;5037546;28;20253;-71
2023/09/11 04:43:28;;;;;;;6.57;6.07;;;19.80;99.90;;;;;;5040077;28;20203;-71
2023/09/11 04:45:55;;;;;;;6.88;6.28;;;19.80;99.90;;;;;;5037377;28;20254;-70
2023/09/11 04:48:22;;;;;;;6.57;6.07;;;19.80;99.90;;;;;;5039931;28;20885;-71
2023/09/11 04:50:49;;;;;;;6.80;6.30;;;19.70;99.90;;;;;;5036277;28;20239;-70
2023/09/11 04:53:16;;;;;;;6.78;6.28;;;19.70;99.90;;;;;;5020131;28;20198;-70
2023/09/11 04:55:45;;;;;;;6.38;5.85;;;19.70;99.90;;;;;;5038275;28;20223;-71
2023/09/11 04:58:12;;;;;;;6.63;6.13;;;19.70;99.90;;;;;;5040279;28;20700;-70
2023/09/11 05:00:40;;;;;;;6.70;6.20;;;19.70;99.90;;;;;;5037902;28;20199;-70
2023/09/11 05:03:07;;;;;;;6.50;6.00;;;19.70;99.90;;;;;;5039282;28;20203;-71
2023/09/11 05:05:38;;;;;;;6.53;6.03;;;19.60;99.90;;;;;;5040988;28;20265;-70
2023/09/11 05:08:06;;;;;;;6.90;6.20;;;19.70;99.90;;;;;;5038007;28;20215;-70
2023/09/11 05:10:34;;;;;;;6.72;6.13;;;19.70;99.90;;;;;;5022261;28;20286;-71
2023/09/11 05:13:02;;;;;;;7.35;6.75;;;19.80;99.90;;;;;;5041865;28;20202;-71
2023/09/11 05:15:29;;;;;;;6.95;6.38;;;19.90;99.90;;;;;;5038396;28;20246;-71
2023/09/11 05:17:55;;;;;;;7.65;6.95;;;19.90;99.90;;;;;;5036694;28;20235;-71
2023/09/11 05:20:22;;;;;;;6.47;5.97;;;20.00;99.90;;;;;;5035687;28;20256;-70
2023/09/11 05:22:49;;;;;;;7.60;6.90;;;20.00;99.90;;;;;;5039549;28;20199;-70
2023/09/11 05:25:16;;;;;;;7.35;6.75;;;20.10;99.90;;;;;;5040312;28;20245;-71
2023/09/11 05:27:44;;;;;;;7.20;6.70;;;20.20;99.90;;;;;;5039335;28;20304;-71
2023/09/11 05:30:14;;;;;;;6.57;6.07;;;20.50;99.90;;;;;;5024835;28;20207;-72
2023/09/11 05:32:41;;;;;;;7.47;6.88;;;20.70;99.90;;;;;;5037315;28;20230;-70
2023/09/11 05:35:09;;;;;;;5.90;5.50;;;20.80;99.90;;;;;;5037924;28;20851;-71
2023/09/11 05:37:35;;;;;;;6.72;6.20;;;21.00;99.90;;;;;;5037400;28;20744;-71
2023/09/11 05:40:07;;;;;;;6.68;6.18;;;21.20;99.90;;;;;;5035075;28;20293;-70
2023/09/11 05:42:33;;;;;;;6.88;6.28;;;21.50;99.90;;;;;;5038947;28;20207;-71
2023/09/11 05:45:00;;;;;;;6.45;5.85;;;21.70;99.90;;;;;;5038817;28;20251;-71
2023/09/11 05:47:29;;;;;;;6.60;6.10;;;22.00;99.90;;;;;;5035231;28;20293;-71
2023/09/11 05:50:00;;;;;;;6.97;6.32;;;22.20;99.90;;;;;;5036547;28;20640;-71
2023/09/11 05:52:27;;;;;;;6.60;6.10;;;22.30;99.90;;;;;;5040220;28;20261;-71
2023/09/11 05:54:54;;;;;;;6.68;6.18;;;22.40;99.90;;;;;;5042110;28;20218;-71
2023/09/11 05:57:21;;;;;;;6.97;6.40;;;22.40;99.90;;;;;;5036550;28;20272;-71
2023/09/11 05:59:48;;;;;;;7.22;6.63;;;22.60;99.90;;;;;;5040212;28;20199;-71
2023/09/11 06:02:15;;;;;;;7.65;7.03;;;22.80;99.90;;;;;;5017775;28;20257;-70
2023/09/11 06:04:43;;;;;;;7.35;6.75;;;22.80;99.90;;;;;;5035827;28;20292;-70
2023/09/11 06:07:11;;;;;;;7.72;7.13;;;22.80;99.90;;;;;;5039050;28;20775;-70
2023/09/11 06:09:39;;;;;;;6.97;6.47;;;22.90;99.90;;;;;;5038165;28;20195;-72
2023/09/11 06:12:07;;;;;;;7.10;6.60;;;23.10;99.90;;;;;;5041361;28;20720;-72
2023/09/11 06:14:37;;;;;;;8.00;7.20;;;23.40;99.90;;;;;;5023686;28;20230;-72
2023/09/11 06:17:05;;;;;;;8.38;7.40;;;23.40;99.90;;;;;;5043012;28;20203;-72
2023/09/11 06:19:32;;;;;;;8.02;7.22;;;23.50;99.90;;;;;;5045464;28;20198;-72
2023/09/11 06:22:00;;;;;;;7.88;7.18;;;23.60;99.90;;;;;;5042547;28;20207;-72
2023/09/11 06:24:28;;;;;;;7.63;7.03;;;23.70;99.90;;;;;;5041646;28;20307;-72
2023/09/11 06:27:04;;;;;;;7.22;6.63;;;23.80;99.90;;;;;;5045099;28;20320;-73
2023/09/11 06:29:31;;;;;;;7.50;6.90;;;24.00;99.90;;;;;;5040183;28;20310;-71
2023/09/11 06:31:58;;;;;;;7.43;6.82;;;24.20;99.90;;;;;;5037726;28;20246;-72
2023/09/11 06:34:27;;;;;;;7.50;6.80;;;24.40;99.90;;;;;;5042659;28;20654;-73
2023/09/11 06:36:54;;;;;;;7.03;6.53;;;24.60;99.90;;;;;;5037743;28;20889;-72
2023/09/11 06:39:23;;;;;;;7.35;6.65;;;24.70;99.90;;;;;;5020930;28;20207;-72
2023/09/11 06:41:50;;;;;;;7.40;6.70;;;24.90;99.90;;;;;;5034840;28;20703;-73
2023/09/11 06:44:17;;;;;;;7.25;6.65;;;24.90;99.90;;;;;;5019361;28;20658;-71
2023/09/11 06:46:44;;;;;;;8.10;6.88;;;25.00;99.90;;;;;;5043294;28;20742;-71
2023/09/11 06:49:11;;;;;;;7.20;6.57;;;25.20;99.90;;;;;;5039616;28;20776;-73
2023/09/11 06:51:38;;;;;;;7.25;6.65;;;25.30;99.90;;;;;;5037197;28;20749;-72
2023/09/11 06:54:09;;;;;;;8.13;7.40;;;25.40;99.90;;;;;;5033974;28;20224;-71
2023/09/11 06:56:37;;;;;;;8.82;7.50;;;25.50;99.90;;;;;;5039340;28;20219;-71
2023/09/11 06:59:04;;;;;;;7.50;6.82;;;25.70;99.90;;;;;;5043280;28;20728;-72
2023/09/11 07:01:38;;;;;;;7.53;6.82;;;25.50;99.90;;;;;;5036738;28;20261;-71
2023/09/11 07:04:06;;;;;;;7.25;6.72;;;25.60;99.90;;;;;;5037841;28;20215;-71
2023/09/11 07:06:33;;;;;;;8.13;7.32;;;25.60;99.90;;;;;;5024265;28;20224;-71
2023/09/11 07:09:00;;;;;;;7.22;6.65;;;25.80;99.90;;;;;;5033964;28;20226;-72
2023/09/11 07:11:27;;;;;;;7.55;6.95;;;25.80;99.90;;;;;;5038284;28;20191;-72
2023/09/11 07:13:55;;;;;;;7.68;6.97;;;26.00;99.90;;;;;;5040109;28;20231;-71
2023/09/11 07:16:22;;;;;;;7.50;6.80;;;26.20;99.90;;;;;;5037424;28;20795;-71
2023/09/11 07:18:49;;;;;;;7.72;7.00;;;26.20;99.90;;;;;;5037151;28;20242;-72
2023/09/11 07:21:16;;;;;;;8.55;7.47;;;26.20;99.90;;;;;;5037320;28;20235;-71
2023/09/11 07:23:43;;;;;;;7.97;7.32;;;26.30;99.90;;;;;;5038288;28;20203;-71
2023/09/11 07:26:10;;;;;;;7.65;7.00;;;26.40;99.90;;;;;;5040148;28;20231;-72
2023/09/11 07:28:53;;;;;;;7.75;7.05;;;26.60;99.90;;;;;;5035564;28;20911;-72
2023/09/11 07:31:21;;;;;;;8.15;7.45;;;26.80;99.90;;;;;;5040890;28;20730;-72
2023/09/11 07:33:48;;;;;;;7.38;6.78;;;26.80;99.90;;;;;;5041019;28;20226;-72
2023/09/11 07:36:17;;;;;;;7.88;7.20;;;26.70;99.90;;;;;;5034509;28;20492;-71
2023/09/11 07:38:45;;;;;;;6.95;6.28;;;26.60;99.90;;;;;;5038001;28;20268;-72
2023/09/11 07:41:13;;;;;;;7.40;6.80;;;26.60;99.90;;;;;;5038842;28;20272;-72
2023/09/11 07:43:40;;;;;;;7.28;6.57;;;26.50;99.90;;;;;;5038171;28;20256;-71
2023/09/11 07:46:07;;;;;;;7.68;6.97;;;26.60;99.90;;;;;;5036206;28;20280;-71
2023/09/11 07:48:36;;;;;;;7.25;6.53;;;26.70;99.90;;;;;;5039121;28;20221;-71
2023/09/11 07:51:03;;;;;;;7.07;6.47;;;26.60;99.90;;;;;;5034106;28;20728;-72
2023/09/11 07:53:30;;;;;;;7.72;6.93;;;26.80;99.90;;;;;;5039735;28;20227;-72
2023/09/11 07:55:57;;;;;;;6.82;6.30;;;27.10;99.90;;;;;;5033017;28;20225;-70
2023/09/11 07:58:24;;;;;;;7.57;6.88;;;27.30;99.90;;;;;;5037133;28;20712;-71
2023/09/11 08:00:51;;;;;;;8.77;7.47;;;27.30;99.90;;;;;;5035757;28;20288;-70
2023/09/11 08:03:18;;;;;;;8.05;7.25;;;27.30;99.90;;;;;;5020287;28;20198;-70
2023/09/11 08:05:46;;;;;;;7.53;6.82;;;27.10;99.90;;;;;;5036094;28;20222;-71
2023/09/11 08:08:14;;;;;;;8.13;7.32;;;27.20;99.90;;;;;;5039308;28;20246;-71
2023/09/11 08:10:41;;;;;;;7.18;6.57;;;27.20;99.90;;;;;;5022031;28;20203;-72
2023/09/11 08:13:08;;;;;;;7.03;6.40;;;27.20;99.90;;;;;;5034206;28;20223;-72
2023/09/11 08:15:35;;;;;;;8.48;6.82;;;27.00;99.90;;;;;;5036513;28;20247;-72
2023/09/11 08:18:01;;;;;;;7.63;6.93;;;27.20;99.90;;;;;;5036971;28;20200;-72
2023/09/11 08:20:28;;;;;;;8.02;6.97;;;27.50;99.90;;;;;;5036330;28;20231;-71
2023/09/11 08:22:58;;;;;;;8.02;7.22;;;27.80;99.90;;;;;;5034580;28;20234;-71
2023/09/11 08:25:25;;;;;;;9.35;6.75;;;27.80;99.90;;;;;;5034761;28;20297;-71
2023/09/11 08:27:53;;;;;;;7.60;6.78;;;27.80;99.90;;;;;;5006095;28;20672;-73
2023/09/11 08:30:20;;;;;;;7.45;6.72;;;27.90;99.90;;;;;;5022750;28;20195;-71
2023/09/11 08:32:47;;;;;;;7.75;7.05;;;27.90;99.90;;;;;;5020116;28;20813;-73
2023/09/11 08:35:14;;;;;;;8.48;7.63;;;27.80;99.90;;;;;;5033203;28;20223;-73
2023/09/11 08:37:41;;;;;;;7.68;6.97;;;27.70;99.90;;;;;;5038570;28;20202;-73
2023/09/11 08:40:11;;;;;;;7.75;6.97;;;27.80;99.90;;;;;;5034009;28;20192;-72
2023/09/11 08:42:38;;;;;;;8.73;7.88;;;27.80;99.90;;;;;;5036876;28;20864;-73
2023/09/11 08:45:06;;;;;;;7.18;6.60;;;27.70;99.90;;;;;;5033964;28;20251;-72
2023/09/11 08:47:35;;;;;;;7.68;6.97;;;27.60;99.90;;;;;;5034833;28;20288;-72
2023/09/11 08:50:05;;;;;;;7.75;6.93;;;27.60;99.90;;;;;;5037779;28;20265;-72
2023/09/11 08:52:36;;;;;;;7.57;6.93;;;27.70;99.90;;;;;;5035442;28;20256;-72
2023/09/11 08:55:08;;;;;;;7.55;6.85;;;27.70;99.90;;;;;;5034786;28;20222;-71
2023/09/11 08:57:39;;;;;;;7.30;6.68;;;27.70;99.90;;;;;;5037657;28;20230;-72
2023/09/11 09:00:11;;;;;;;8.43;7.50;;;27.80;99.90;;;;;;5037508;28;20203;-71
2023/09/11 09:02:39;;;;;;;7.45;6.75;;;27.90;99.90;;;;;;5035423;28;20207;-72
2023/09/11 09:05:08;;;;;;;7.47;6.88;;;28.00;99.90;;;;;;5034341;28;20246;-71
2023/09/11 09:07:35;;;;;;;6.35;5.85;;;28.10;99.90;;;;;;5034442;28;20199;-71
2023/09/11 09:10:04;;;;;;;7.80;7.03;;;28.10;99.90;;;;;;5018133;28;20292;-71
2023/09/11 09:12:31;;;;;;;7.63;6.70;;;28.20;99.90;;;;;;5030995;28;21585;-71
2023/09/11 09:15:00;;;;;;;7.43;6.82;;;28.40;99.90;;;;;;5030451;28;20699;-71
2023/09/11 09:17:27;;;;;;;7.40;6.80;;;28.70;99.90;;;;;;5037446;28;20207;-71
2023/09/11 09:19:54;;;;;;;7.40;6.70;;;29.10;99.90;;;;;;5035606;28;21035;-71
2023/09/11 09:22:21;;;;;;;6.95;6.35;;;29.10;99.90;;;;;;5032359;28;20226;-71
2023/09/11 09:24:53;;;;;;;7.40;6.18;;;29.00;99.90;;;;;;5016001;28;20302;-71
2023/09/11 09:27:21;;;;;;;7.70;7.07;;;29.00;99.90;;;;;;5035001;28;20373;-70
2023/09/11 09:29:48;;;;;;;7.47;6.75;;;29.00;99.90;;;;;;5036981;28;20211;-71
2023/09/11 09:32:17;;;;;;;7.97;6.97;;;29.20;99.90;;;;;;5031944;28;20668;-71
2023/09/11 09:34:50;;;;;;;8.57;6.85;;;29.40;99.90;;;;;;5032223;28;20225;-71
2023/09/11 09:37:18;;;;;;;7.90;7.15;;;29.50;99.90;;;;;;5018119;28;20202;-71
2023/09/11 09:39:48;;;;;;;7.88;6.65;;;29.70;99.90;;;;;;5031736;28;20222;-70
2023/09/11 09:42:15;;;;;;;8.00;7.20;;;29.70;99.90;;;;;;5030089;28;20261;-70
2023/09/11 09:44:45;;;;;;;8.13;7.43;;;29.70;99.90;;;;;;5032495;28;20736;-73
2023/09/11 09:47:13;;;;;;;7.30;6.70;;;29.70;99.90;;;;;;5038753;28;20203;-72
2023/09/11 09:49:48;;;;;;;7.10;6.43;;;29.50;99.90;;;;;;5040408;28;20268;-71
2023/09/11 09:52:15;;;;;;;7.70;7.00;;;29.50;99.90;;;;;;5039036;28;20234;-71
2023/09/11 09:54:44;;;;;;;8.48;7.68;;;29.40;99.90;;;;;;5041810;28;20294;-71
2023/09/11 09:57:13;;;;;;;7.70;7.00;;;29.30;99.90;;;;;;5040589;28;20918;-71
2023/09/11 09:59:40;;;;;;;6.97;6.35;;;29.30;99.90;;;;;;5038570;28;20648;-71
2023/09/11 10:02:10;;;;;;;7.95;7.20;;;29.50;99.90;;;;;;5041119;28;20272;-71
2023/09/11 10:04:37;;;;;;;9.25;7.13;;;29.60;99.90;;;;;;5034681;28;21026;-71
2023/09/11 10:07:07;;;;;;;8.07;6.88;;;29.60;99.90;;;;;;5025024;28;20807;-71
2023/09/11 10:09:35;;;;;;;7.25;6.60;;;29.50;99.90;;;;;;5036184;28;20247;-71
2023/09/11 10:12:04;;;;;;;7.53;6.82;;;29.60;99.90;;;;;;5042152;28;20232;-71
2023/09/11 10:14:31;;;;;;;7.47;6.88;;;29.90;99.90;;;;;;5039771;28;20217;-71
2023/09/11 10:17:00;;;;;;;8.77;6.85;;;30.00;99.90;;;;;;5039349;28;20199;-71
2023/09/11 10:19:30;;;;;;;7.03;6.43;;;29.90;99.90;;;;;;5038888;28;20195;-71
2023/09/11 10:21:58;;;;;;;8.07;7.28;;;29.90;99.90;;;;;;5038302;28;20207;-71
2023/09/11 10:24:27;;;;;;;7.03;6.53;;;29.60;99.90;;;;;;5033202;28;20285;-71
2023/09/11 10:26:57;;;;;;;7.68;6.93;;;29.40;99.90;;;;;;5039948;28;20296;-71
2023/09/11 10:29:37;;;;;;;7.72;7.00;;;29.50;99.90;;;;;;5037096;28;20215;-71
2023/09/11 10:32:10;;;;;;;8.30;7.03;;;29.40;99.90;;;;;;5038477;28;20203;-71
2023/09/11 10:34:38;;;;;;;7.50;6.80;;;29.70;99.90;;;;;;5037857;28;20219;-71
2023/09/11 10:37:06;;;;;;;7.05;6.40;;;29.90;99.90;;;;;;5041338;28;20217;-71
2023/09/11 10:39:38;;;;;;;8.13;7.32;;;30.10;99.90;;;;;;5021437;28;20191;-71
2023/09/11 10:42:05;;;;;;;7.28;6.47;;;30.20;99.90;;;;;;5035614;28;20292;-71
2023/09/11 10:44:37;;;;;;;7.95;6.22;;;30.20;99.90;;;;;;5040784;28;20826;-71
2023/09/11 10:47:05;;;;;;;8.32;6.95;;;30.00;99.90;;;;;;5040388;28;20206;-71
2023/09/11 10:49:36;;;;;;;7.18;6.50;;;29.80;99.90;;;;;;5023879;28;20223;-71
2023/09/11 10:52:07;;;;;;;7.80;7.00;;;29.90;99.90;;;;;;5025802;28;20195;-71
2023/09/11 10:54:36;;;;;;;6.65;6.00;;;30.00;99.90;;;;;;5023204;28;20211;-71
2023/09/11 10:57:03;;;;;;;8.43;7.55;;;30.00;99.90;;;;;;5037910;28;20199;-71
2023/09/11 10:59:31;;;;;;;9.23;6.72;;;29.70;99.90;;;;;;5040548;28;20202;-71
2023/09/11 11:01:59;;;;;;;7.72;6.82;;;29.80;99.90;;;;;;5008360;28;20290;-71
2023/09/11 11:04:26;;;;;;;7.55;6.78;;;30.00;99.90;;;;;;5039408;28;20229;-71
2023/09/11 11:06:58;;;;;;;7.95;7.25;;;30.30;99.90;;;;;;5022277;28;20211;-71
2023/09/11 11:09:29;;;;;;;7.13;6.47;;;30.40;99.90;;;;;;5022242;28;20632;-71
2023/09/11 11:12:04;;;;;;;8.10;7.30;;;30.50;99.90;;;;;;5036159;28;20639;-71
2023/09/11 11:14:31;;;;;;;6.40;5.80;;;30.20;99.90;;;;;;5041674;28;20218;-71
2023/09/11 11:17:03;;;;;;;6.70;6.07;;;30.20;99.90;;;;;;5041237;28;20288;-71
2023/09/11 11:19:31;;;;;;;7.50;6.90;;;30.20;99.90;;;;;;5035793;28;20201;-71
2023/09/11 11:21:59;;;;;;;7.90;7.20;;;30.10;99.90;;;;;;5035442;28;20281;-71
2023/09/11 11:24:26;;;;;;;6.97;6.38;;;30.10;99.90;;;;;;5035814;28;20769;-71
2023/09/11 11:26:57;;;;;;;7.10;6.50;;;30.10;99.90;;;;;;5039495;28;20289;-71
2023/09/11 11:29:27;;;;;;;6.97;6.38;;;30.30;99.90;;;;;;5036189;28;20251;-71
2023/09/11 11:31:58;;;;;;;6.72;6.07;;;30.40;99.90;;;;;;5034988;28;20283;-71
2023/09/11 11:34:28;;;;;;;6.75;6.15;;;30.50;99.90;;;;;;5038885;28;20299;-71
2023/09/11 11:36:58;;;;;;;6.63;6.13;;;30.50;99.90;;;;;;5038400;28;20206;-71
2023/09/11 11:39:25;;;;;;;7.30;6.60;;;30.30;99.90;;;;;;5037235;28;20233;-71
2023/09/11 11:41:53;;;;;;;6.82;6.13;;;30.20;99.90;;;;;;5037889;28;20316;-71
2023/09/11 11:44:22;;;;;;;7.13;6.53;;;30.20;99.90;;;;;;5019139;28;20304;-71
2023/09/11 11:46:52;;;;;;;7.95;7.15;;;30.20;99.90;;;;;;5035972;28;20230;-71
2023/09/11 11:49:20;;;;;;;7.03;6.43;;;30.20;99.90;;;;;;5038420;28;20218;-71
2023/09/11 11:51:48;;;;;;;7.50;6.50;;;30.10;99.90;;;;;;5039284;28;20232;-71
2023/09/11 11:54:22;;;;;;;7.97;7.18;;;30.10;99.90;;;;;;5017231;28;20225;-71
2023/09/11 11:56:55;;;;;;;7.78;7.07;;;30.10;99.90;;;;;;5019732;28;20211;-71
2023/09/11 11:59:22;;;;;;;8.07;7.15;;;30.00;99.90;;;;;;5035605;28;20195;-71
2023/09/11 12:01:50;;;;;;;6.93;6.22;;;29.90;99.90;;;;;;5038665;28;20206;-71
2023/09/11 12:04:18;;;;;;;8.65;7.78;;;29.80;99.90;;;;;;5021108;28;20300;-71
2023/09/11 12:06:45;;;;;;;9.40;8.02;;;29.90;99.90;;;;;;5035111;28;20252;-71
2023/09/11 12:09:17;;;;;;;10.43;7.97;;;29.70;99.90;;;;;;5034308;28;20424;-71
2023/09/11 12:11:45;;;;;;;7.90;7.10;;;29.70;99.90;;;;;;5036606;28;20203;-71
2023/09/11 12:14:15;;;;;;;8.27;6.97;;;29.80;99.90;;;;;;5031609;28;20276;-71
2023/09/11 12:16:43;;;;;;;8.35;6.57;;;30.00;99.90;;;;;;5035740;28;20196;-71
2023/09/11 12:19:11;;;;;;;7.88;7.18;;;29.90;99.90;;;;;;5038656;28;20206;-71
2023/09/11 12:21:38;;;;;;;7.32;6.22;;;29.80;99.90;;;;;;5036844;28;20210;-71
2023/09/11 12:24:08;;;;;;;8.90;6.90;;;30.00;99.90;;;;;;5037658;28;20303;-71
2023/09/11 12:26:36;;;;;;;8.00;6.75;;;30.20;99.90;;;;;;5038090;28;20206;-71
2023/09/11 12:29:04;;;;;;;7.10;6.50;;;30.30;99.90;;;;;;5035778;28;20630;-71
2023/09/11 12:31:31;;;;;;;7.38;6.68;;;30.20;99.90;;;;;;5039643;28;20199;-71
2023/09/11 12:33:59;;;;;;;8.05;7.35;;;30.30;99.90;;;;;;5022425;28;20310;-71
2023/09/11 12:36:28;;;;;;;7.38;6.78;;;30.40;99.90;;;;;;5033420;28;20268;-71
2023/09/11 12:38:55;;;;;;;10.38;7.55;;;30.40;99.90;;;;;;5035996;28;20407;-72
2023/09/11 12:41:24;;;;;;;7.45;6.85;;;30.30;99.90;;;;;;5037139;28;20657;-71
2023/09/11 12:43:51;;;;;;;8.73;7.32;;;30.10;99.90;;;;;;5019952;28;20229;-71
2023/09/11 12:46:18;;;;;;;9.45;7.60;;;30.20;99.90;;;;;;5034210;28;20231;-72
2023/09/11 12:48:47;;;;;;;8.48;7.72;;;30.10;99.90;;;;;;5035623;28;20312;-72
2023/09/11 12:51:15;;;;;;;7.85;7.10;;;30.10;99.90;;;;;;5037208;28;20239;-72